Time;durP1;ratioP1;P1;durP2;ratioP2;P2;SDS_P1;SDS_P2;PMS_P1;PMS_P2;Temp;Humidity;BMP_temperature;BMP_pressure;BME280_temperature;BME280_humidity;BME280_pressure;Samples;Min_cycle;Max_cycle;Signal;HPM_P1;HPM_P2
2023/06/20 00:00:10;;;;;;;10.13;5.70;;;;;;;-144.47;63.92;52595.91;5015610;28;20010;-92
2023/06/20 00:02:36;;;;;;;11.05;5.70;;;;;;;-144.47;63.45;52603.84;5015458;28;20022;-91
2023/06/20 00:05:09;;;;;;;10.07;4.85;;;;;;;-144.47;63.61;52597.91;5015989;28;20026;-91
2023/06/20 00:07:43;;;;;;;8.20;5.32;;;;;;;-144.47;63.56;52607.84;5015994;28;20010;-91
2023/06/20 00:10:23;;;;;;;12.25;5.25;;;;;;;-144.47;63.60;52613.78;4989138;28;20035;-92
2023/06/20 00:12:51;;;;;;;10.07;5.65;;;;;;;-144.47;63.38;52593.94;5003295;28;20068;-92
2023/06/20 00:15:25;;;;;;;12.32;5.85;;;;;;;-144.47;63.73;52597.91;5013435;28;20026;-93
2023/06/20 00:18:06;;;;;;;9.43;5.60;;;;;;;-144.47;63.95;52585.97;5007223;28;20094;-92
2023/06/20 00:20:35;;;;;;;7.57;5.25;;;;;;;-144.47;64.02;52601.88;5000301;28;20050;-92
2023/06/20 00:23:11;;;;;;;10.40;5.50;;;;;;;-144.47;63.94;52603.84;4995687;28;20029;-91
2023/06/20 00:25:36;;;;;;;8.48;5.70;;;;;;;-144.47;64.56;52597.91;4996683;28;20100;-91
2023/06/20 00:28:08;;;;;;;15.30;6.20;;;;;;;-144.47;64.74;52572.09;4995456;28;20038;-92
2023/06/20 00:30:43;;;;;;;10.77;5.90;;;;;;;-144.47;64.49;52593.94;4995340;28;20077;-91
2023/06/20 00:33:19;;;;;;;19.45;6.45;;;;;;;-144.47;64.55;52585.97;4995367;28;20045;-91
2023/06/20 00:35:47;;;;;;;14.23;5.90;;;;;;;-144.47;64.52;52605.84;4995995;28;20086;-91
2023/06/20 00:38:15;;;;;;;9.10;5.80;;;;;;;-144.47;64.56;52615.78;4995990;28;20054;-90
2023/06/20 00:40:53;;;;;;;7.97;5.75;;;;;;;-144.47;64.17;52607.84;4995158;28;20035;-90
2023/06/20 00:43:27;;;;;;;12.35;6.35;;;;;;;-144.47;64.12;52615.78;4994668;28;20053;-91
2023/06/20 00:45:53;;;;;;;9.68;6.03;;;;;;;-144.47;64.03;52587.97;4994996;28;20445;-91
2023/06/20 00:48:52;;;;;;;11.98;6.38;;;;;;;-144.47;63.88;52589.97;4993880;28;20026;-92
2023/06/20 00:51:22;;;;;;;12.15;5.97;;;;;;;-144.47;64.12;52613.78;5016348;28;20057;-91
2023/06/20 00:53:50;;;;;;;11.10;5.63;;;;;;;-144.47;64.10;52615.78;5004012;28;20080;-91
2023/06/20 00:56:24;;;;;;;8.05;5.15;;;;;;;-144.47;63.88;52621.72;4993793;28;20030;-92
2023/06/20 00:58:49;;;;;;;11.35;5.35;;;;;;;-144.47;64.10;52615.78;4998802;28;20034;-91
2023/06/20 01:01:16;;;;;;;10.35;5.55;;;;;;;-144.47;63.80;52587.97;4995585;28;20073;-92
2023/06/20 01:03:53;;;;;;;7.97;4.85;;;;;;;-144.47;63.94;52609.81;4995742;28;20026;-92
2023/06/20 01:06:35;;;;;;;11.05;5.80;;;;;;;-144.47;64.00;52605.84;4994865;28;20026;-92
2023/06/20 01:09:39;;;;;;;;;;;;;;;;;;;;;
2023/06/20 01:12:20;;;;;;;10.68;5.75;;;;;;;-144.47;64.18;52607.84;4998795;28;20030;-93
2023/06/20 01:14:54;;;;;;;8.60;5.90;;;;;;;-144.47;64.19;52582.00;4997835;28;20092;-92
2023/06/20 01:17:27;;;;;;;11.52;5.82;;;;;;;-144.47;64.24;52572.09;4997154;28;20048;-91
2023/06/20 01:20:25;;;;;;;9.70;5.18;;;;;;;-144.47;64.38;52603.84;4997138;28;20061;-92
2023/06/20 01:23:02;;;;;;;10.68;5.28;;;;;;;-144.47;64.27;52601.88;4998123;28;20470;-92
2023/06/20 01:26:03;;;;;;;7.75;5.88;;;;;;;-144.47;64.05;52595.91;5005067;28;20393;-92
2023/06/20 01:29:14;;;;;;;10.55;5.35;;;;;;;-144.47;64.39;52615.78;4975749;28;20407;-91
2023/06/20 01:31:55;;;;;;;9.98;5.80;;;;;;;-144.47;64.83;52591.94;4865540;29;20090;-91
2023/06/20 01:34:32;;;;;;;10.95;5.60;;;;;;;-144.47;65.07;52595.91;4865956;29;20137;-92
2023/06/20 01:37:05;;;;;;;8.50;5.05;;;;;;;-144.47;65.36;52599.88;4881401;29;20040;-91
2023/06/20 01:39:42;;;;;;;11.75;5.40;;;;;;;-144.47;65.44;52623.72;4861983;29;20048;-92
2023/06/20 01:42:13;;;;;;;9.32;5.85;;;;;;;-144.47;65.57;52572.09;4863460;29;20580;-91
2023/06/20 01:44:41;;;;;;;9.02;5.78;;;;;;;-144.47;65.41;52585.97;4862532;29;20042;-92
2023/06/20 01:47:16;;;;;;;10.57;6.22;;;;;;;-144.47;65.81;52611.81;4862687;29;20069;-92
2023/06/20 01:49:57;;;;;;;;;;;;;;;;;;;;;
2023/06/20 01:52:58;;;;;;;7.57;5.20;;;;;;;-144.47;66.19;52595.91;4862125;29;20042;-92
2023/06/20 01:55:34;;;;;;;9.70;5.63;;;;;;;-144.47;66.68;52560.16;4848561;29;20061;-92
2023/06/20 01:58:12;;;;;;;11.68;5.47;;;;;;;-144.47;67.14;52597.91;4870981;29;20049;-91
2023/06/20 02:00:53;;;;;;;8.65;6.03;;;;;;;-144.47;67.68;52593.94;4847086;29;20029;-91
2023/06/20 02:04:01;;;;;;;17.23;6.55;;;;;;;-144.47;68.35;52593.94;4929907;29;20145;-92
2023/06/20 02:06:46;;;;;;;8.88;5.80;;;;;;;-144.47;68.92;52607.84;4974154;28;20126;-93
2023/06/20 02:10:19;;;;;;;;;;;;;;;;;;;;;
2023/06/20 02:16:44;;;;;;;11.55;5.85;;;;;;;-144.47;69.94;52574.06;4917183;29;20142;-91
2023/06/20 02:19:21;;;;;;;9.18;6.38;;;;;;;-144.47;70.61;52595.91;4901153;29;20063;-92
2023/06/20 02:21:56;;;;;;;12.23;7.22;;;;;;;-144.47;71.20;52585.97;4905170;29;20114;-91
2023/06/20 02:24:27;;;;;;;12.68;7.30;;;;;;;-144.47;72.37;52617.75;4916957;29;20044;-91
2023/06/20 02:26:56;;;;;;;11.05;6.88;;;;;;;-144.47;72.88;52605.84;4907697;29;20024;-90
2023/06/20 02:29:37;;;;;;;9.00;6.47;;;;;;;-144.47;73.64;52633.66;4948224;29;20040;-91
2023/06/20 02:32:05;;;;;;;13.48;7.72;;;;;;;-144.47;74.34;52597.91;4942520;29;20039;-90
2023/06/20 02:34:45;;;;;;;12.45;6.97;;;;;;;-144.47;74.99;52617.75;4938130;29;20126;-92
2023/06/20 02:37:16;;;;;;;12.38;6.88;;;;;;;-144.47;75.02;52597.91;4920561;29;20050;-90
2023/06/20 02:39:53;;;;;;;9.13;6.65;;;;;;;-144.47;75.05;52605.84;4901915;29;20067;-91
2023/06/20 02:42:41;;;;;;;11.18;7.03;;;;;;;-144.47;75.33;52572.09;4916975;29;20076;-92
2023/06/20 02:45:16;;;;;;;;;;;;;;;-144.47;75.79;52607.84;4939894;29;20035;-92
2023/06/20 02:48:10;;;;;;;;;;;;;;;;;;;;;
2023/06/20 02:50:48;;;;;;;14.43;6.82;;;;;;;-144.47;75.16;52580.03;5013263;28;20488;-91
2023/06/20 02:53:50;;;;;;;17.83;8.77;;;;;;;-144.47;75.31;52621.72;5005498;28;20030;-91
2023/06/20 02:56:29;;;;;;;10.95;7.40;;;;;;;-144.47;76.33;52605.84;5007874;28;20062;-92
2023/06/20 02:59:04;;;;;;;11.82;7.20;;;;;;;-144.47;77.02;52603.84;5004651;28;20018;-92
2023/06/20 03:01:55;;;;;;;13.45;7.93;;;;;;;-144.47;77.33;52585.97;4998718;28;20130;-90
2023/06/20 03:04:36;;;;;;;12.88;7.97;;;;;;;-144.47;77.46;52613.78;4995745;28;20026;-92
2023/06/20 03:07:43;;;;;;;;;;;;;;;;;;;;;
2023/06/20 03:10:13;;;;;;;16.58;8.48;;;;;;;-144.47;77.08;52582.00;4996894;28;20041;-92
2023/06/20 03:12:54;;;;;;;;;;;;;;;;;;;;;
2023/06/20 03:15:30;;;;;;;11.88;8.60;;;;;;;-144.47;77.15;52613.78;4997007;28;20098;-91
2023/06/20 03:18:19;;;;;;;13.60;8.50;;;;;;;-144.47;76.72;52591.94;4994609;28;20030;-91
2023/06/20 03:20:54;;;;;;;;;;;;;;;-144.47;77.27;52613.78;4995656;28;20060;-90
2023/06/20 03:23:20;;;;;;;16.25;8.52;;;;;;;-144.47;77.96;52597.91;4995595;28;20437;-90
2023/06/20 03:25:48;;;;;;;11.77;8.07;;;;;;;-144.47;78.31;52611.81;5012319;28;20109;-91
2023/06/20 03:28:19;;;;;;;13.02;9.52;;;;;;;-144.47;78.24;52619.75;4996726;28;20030;-91
2023/06/20 03:30:55;;;;;;;14.07;8.30;;;;;;;-144.47;78.03;52617.75;4995462;28;20027;-91
2023/06/20 03:33:35;;;;;;;19.00;8.77;;;;;;;-144.47;77.84;52597.91;4996370;28;20121;-91
2023/06/20 03:36:05;;;;;;;;;;;;;;;-144.47;77.70;52601.88;4995658;28;20030;-90
2023/06/20 03:38:41;;;;;;;14.38;8.85;;;;;;;-144.47;77.07;52607.84;4994445;28;20012;-91
2023/06/20 03:41:27;;;;;;;12.68;8.52;;;;;;;-144.47;77.13;52601.88;4995221;28;20030;-91
2023/06/20 03:44:04;;;;;;;;;;;;;;;;;;;;;
2023/06/20 03:46:38;;;;;;;11.43;8.48;;;;;;;-144.47;76.71;52589.97;4979606;28;20125;-90
2023/06/20 03:49:21;;;;;;;;;;;;;;;;;;;;;
2023/06/20 03:52:07;;;;;;;;;;;;;;;;;;;;;
2023/06/20 03:54:43;;;;;;;14.48;8.50;;;;;;;-144.47;76.83;52605.84;5018541;28;20101;-91
2023/06/20 04:00:21;;;;;;;13.07;8.23;;;;;;;-144.47;76.25;52617.75;5022672;28;20036;-91
2023/06/20 04:03:01;;;;;;;;;;;;;;;;;;;;;
2023/06/20 04:05:36;;;;;;;17.33;7.95;;;;;;;-144.47;76.23;52587.97;5016630;28;20157;-91
2023/06/20 04:08:10;;;;;;;10.40;7.38;;;;;;;-144.47;76.11;52603.84;5020748;28;20395;-91
2023/06/20 04:13:31;;;;;;;12.02;7.63;;;;;;;-144.47;75.17;52593.94;5019776;28;20032;-89
2023/06/20 04:15:57;;;;;;;16.90;8.50;;;;;;;-144.47;74.91;52609.81;5005075;28;20105;-92
2023/06/20 04:18:26;;;;;;;10.63;7.25;;;;;;;-144.47;74.64;52615.78;5001573;28;20595;-92
2023/06/20 04:21:00;;;;;;;11.48;7.95;;;;;;;-144.47;74.51;52613.78;4994813;28;20022;-93
2023/06/20 04:23:31;;;;;;;15.50;8.75;;;;;;;-144.47;73.67;52621.72;4982759;28;20121;-89
2023/06/20 04:25:56;;;;;;;11.00;8.00;;;;;;;-144.47;73.27;52574.06;4996796;28;20033;-92
2023/06/20 04:28:24;;;;;;;11.75;7.47;;;;;;;-144.47;72.88;52613.78;5005625;28;20025;-92
2023/06/20 04:31:03;;;;;;;13.50;7.60;;;;;;;-144.47;72.82;52585.97;5007023;28;20034;-90
2023/06/20 04:33:34;;;;;;;9.15;6.78;;;;;;;-144.47;73.05;52611.81;4977939;28;20062;-92
2023/06/20 04:36:15;;;;;;;;;;;;;;;;;;;;;
2023/06/20 04:38:48;;;;;;;11.93;7.47;;;;;;;-144.47;72.87;52617.75;4977996;28;20105;-91
2023/06/20 04:41:46;;;;;;;9.43;6.93;;;;;;;-144.47;72.83;52639.59;4974815;28;20432;-92
2023/06/20 04:44:16;;;;;;;12.55;7.65;;;;;;;-144.47;72.50;52613.78;4944066;29;20039;-89
2023/06/20 04:49:54;;;;;;;9.73;6.00;;;;;;;-144.47;71.61;52655.50;4922171;29;20155;-88
2023/06/20 04:52:24;;;;;;;10.93;7.30;;;;;;;-144.47;72.52;52613.78;4914120;29;20052;-86
2023/06/20 04:55:04;;;;;;;8.90;6.20;;;;;;;-144.47;72.40;52621.72;4913974;29;20040;-89
2023/06/20 04:57:31;;;;;;;10.98;7.32;;;;;;;-144.47;72.88;52597.91;4913952;29;20046;-88
2023/06/20 05:00:16;;;;;;;13.55;7.40;;;;;;;-144.47;72.70;52637.63;4899720;29;20075;-88
2023/06/20 05:02:52;;;;;;;10.48;6.75;;;;;;;-144.47;73.69;52613.78;4914873;29;20036;-90
2023/06/20 05:05:59;;;;;;;12.43;7.85;;;;;;;-144.47;74.99;52601.88;4900232;29;20032;-90
2023/06/20 05:08:28;;;;;;;11.87;8.17;;;;;;;-144.47;75.56;52609.81;4901703;29;20055;-89
2023/06/20 05:11:00;;;;;;;;;;;;;;;-144.47;76.27;52605.84;4905602;29;20096;-83
2023/06/20 05:13:31;;;;;;;12.20;8.18;;;;;;;-144.47;77.24;52605.84;4919624;29;19927;-90
2023/06/20 05:15:57;;;;;;;11.05;7.68;;;;;;;-144.47;78.34;52587.97;4925099;29;20040;-90
2023/06/20 05:18:25;;;;;;;12.23;8.27;;;;;;;-144.47;79.12;52621.72;4917461;29;20083;-90
2023/06/20 05:21:00;;;;;;;11.93;8.38;;;;;;;-144.47;78.79;52615.78;4915697;29;20036;-89
2023/06/20 05:23:32;;;;;;;15.30;8.25;;;;;;;-144.47;78.17;52587.97;4913838;29;20039;-90
2023/06/20 05:26:14;;;;;;;13.20;8.68;;;;;;;-144.47;78.55;52601.88;4922569;28;20028;-90
2023/06/20 05:28:46;;;;;;;13.50;8.02;;;;;;;-144.47;78.90;52629.69;4990410;28;20486;-89
2023/06/20 05:31:28;;;;;;;15.25;8.13;;;;;;;-144.47;80.11;52611.81;4979789;28;20121;-90
2023/06/20 05:34:04;;;;;;;19.60;10.00;;;;;;;-144.47;82.79;52603.84;4952243;28;20522;-91
2023/06/20 05:36:33;;;;;;;21.08;9.88;;;;;;;-144.47;86.25;52597.91;4980275;28;20034;-91
2023/06/20 05:39:43;;;;;;;20.05;9.95;;;;;;;-144.47;83.64;52615.78;4998456;28;20130;-92
2023/06/20 05:42:39;;;;;;;17.27;9.02;;;;;;;-144.47;80.50;52629.69;4962621;28;20088;-93
2023/06/20 05:45:05;;;;;;;16.70;8.68;;;;;;;-144.47;80.90;52627.69;5000030;23;20049;-69
2023/06/20 05:47:31;;;;;;;15.23;9.32;;;;;;;-144.47;78.77;52649.53;5005260;28;20085;-71
2023/06/20 05:49:57;;;;;;;13.75;9.65;;;;;;;-144.47;78.59;52647.56;5007785;28;20109;-70
2023/06/20 05:52:22;;;;;;;18.13;9.02;;;;;;;-144.47;77.36;52637.63;5009370;28;20044;-71
2023/06/20 05:54:48;;;;;;;20.65;10.13;;;;;;;-144.47;75.91;52617.75;4994996;28;20022;-71
2023/06/20 05:57:13;;;;;;;13.00;8.02;;;;;;;-144.47;75.63;52633.66;5011424;28;20154;-72
2023/06/20 05:59:39;;;;;;;15.23;10.18;;;;;;;-144.47;72.91;52629.69;5024348;22;20058;-72
2023/06/20 06:02:05;;;;;;;13.13;7.63;;;;;;;-144.47;72.15;52645.56;4974758;28;20288;-71
2023/06/20 06:04:31;;;;;;;16.00;10.07;;;;;;;-144.47;72.32;52619.75;5005819;28;20030;-71
2023/06/20 06:06:57;;;;;;;14.27;9.68;;;;;;;-144.47;71.90;52633.66;4991154;28;20100;-72
2023/06/20 06:09:22;;;;;;;14.10;9.30;;;;;;;-144.47;71.53;52621.72;5001990;28;20025;-72
2023/06/20 06:11:48;;;;;;;13.93;9.75;;;;;;;-144.47;72.64;52663.44;5010551;28;20026;-69
2023/06/20 06:14:13;;;;;;;25.05;10.02;;;;;;;-144.47;74.44;52629.69;5009751;28;20084;-72
2023/06/20 06:16:39;;;;;;;18.15;10.40;;;;;;;-144.47;76.70;52633.66;5009887;28;20033;-73
2023/06/20 06:19:04;;;;;;;16.77;9.82;;;;;;;-144.47;77.45;52621.72;5010095;28;20124;-73
2023/06/20 06:21:30;;;;;;;25.05;10.40;;;;;;;-144.47;77.54;52629.69;5010074;28;20336;-72
2023/06/20 06:23:56;;;;;;;17.02;9.57;;;;;;;-144.47;76.67;52595.91;5010878;28;20100;-73
2023/06/20 06:26:21;;;;;;;13.43;9.52;;;;;;;-144.47;78.25;52635.63;5010771;28;20018;-72
2023/06/20 06:28:47;;;;;;;19.42;9.27;;;;;;;-144.47;80.36;52649.53;5011456;28;20026;-70
2023/06/20 06:31:17;;;;;;;14.25;9.75;;;;;;;-144.47;79.92;52643.56;5011245;28;20641;-72
2023/06/20 06:33:43;;;;;;;16.58;10.55;;;;;;;-144.47;80.73;52641.59;5007182;28;20037;-72
2023/06/20 06:36:09;;;;;;;17.65;8.75;;;;;;;-144.47;80.49;52621.72;5009744;28;20092;-73
2023/06/20 06:38:35;;;;;;;12.85;9.90;;;;;;;-144.47;80.46;52645.56;4977632;28;20511;-71
2023/06/20 06:41:01;;;;;;;18.25;9.93;;;;;;;-144.47;81.67;52641.59;5009791;28;20049;-72
2023/06/20 06:43:27;;;;;;;14.75;10.15;;;;;;;-144.47;81.45;52599.88;5006528;28;20105;-69
2023/06/20 06:45:52;;;;;;;18.00;9.95;;;;;;;-144.47;82.25;52633.66;5009667;28;20168;-72
2023/06/20 06:48:18;;;;;;;24.75;10.73;;;;;;;-144.47;81.15;52617.75;5009761;28;20168;-75
2023/06/20 06:50:44;;;;;;;16.88;10.07;;;;;;;-144.47;81.25;52605.84;5009578;28;20491;-72
2023/06/20 06:53:11;;;;;;;15.85;8.93;;;;;;;-144.47;79.67;52631.66;5009749;28;20148;-72
2023/06/20 06:55:36;;;;;;;17.33;9.57;;;;;;;-144.47;80.83;52613.78;5001362;28;20936;-70
2023/06/20 06:58:02;;;;;;;16.30;9.65;;;;;;;-144.47;81.66;52633.66;5005646;28;20627;-70
2023/06/20 07:00:27;;;;;;;15.65;9.63;;;;;;;-144.47;82.84;52621.72;5006034;28;20034;-72
2023/06/20 07:02:52;;;;;;;21.73;9.85;;;;;;;-144.47;82.45;52641.59;5009674;28;20030;-72
2023/06/20 07:05:19;;;;;;;22.55;9.68;;;;;;;-144.47;82.12;52649.53;5009013;28;20030;-71
2023/06/20 07:07:44;;;;;;;15.32;8.27;;;;;;;-144.47;80.40;52617.75;5001486;28;20046;-74
2023/06/20 07:10:10;;;;;;;11.80;8.75;;;;;;;-144.47;80.95;52615.78;5006006;28;20099;-72
2023/06/20 07:12:35;;;;;;;18.75;9.07;;;;;;;-144.47;81.55;52645.56;5009355;28;20491;-72
2023/06/20 07:15:01;;;;;;;15.27;9.18;;;;;;;-144.47;82.95;52609.81;5009411;28;20525;-70
2023/06/20 07:17:26;;;;;;;13.13;8.70;;;;;;;-144.47;83.83;52621.72;5001464;28;20251;-69
2023/06/20 07:19:52;;;;;;;16.13;8.88;;;;;;;-144.47;84.71;52613.78;5009164;28;20069;-72
2023/06/20 07:22:19;;;;;;;16.38;9.27;;;;;;;-144.47;85.92;52617.75;5009109;28;20030;-70
2023/06/20 07:24:44;;;;;;;15.15;8.80;;;;;;;-144.47;86.53;52657.47;5007410;28;20076;-71
2023/06/20 07:27:10;;;;;;;15.13;8.77;;;;;;;-144.47;86.55;52615.78;5001906;28;20029;-78
2023/06/20 07:29:36;;;;;;;20.13;8.38;;;;;;;-144.47;86.57;52627.69;5002792;28;20125;-71
2023/06/20 07:32:02;;;;;;;12.70;9.20;;;;;;;-144.47;86.94;52619.75;5004391;28;20232;-71
2023/06/20 07:34:28;;;;;;;15.73;9.23;;;;;;;-144.47;88.50;52625.72;5002120;28;20129;-71
2023/06/20 07:36:53;;;;;;;12.23;8.52;;;;;;;-144.47;88.79;52613.78;5002419;28;20049;-72
2023/06/20 07:39:18;;;;;;;17.48;8.55;;;;;;;-144.47;89.34;52623.72;5000743;28;20025;-71
2023/06/20 07:41:44;;;;;;;17.00;9.30;;;;;;;-144.47;91.23;52595.91;5002431;28;20030;-74
2023/06/20 07:44:10;;;;;;;20.02;9.90;;;;;;;-144.47;91.47;52601.88;4999627;28;20638;-71
2023/06/20 07:46:36;;;;;;;13.82;9.35;;;;;;;-144.47;92.02;52637.63;5000385;28;20030;-74
2023/06/20 07:49:02;;;;;;;15.45;9.02;;;;;;;-144.47;92.95;52617.75;4983562;28;20065;-72
2023/06/20 07:51:31;;;;;;;16.13;10.00;;;;;;;-144.47;93.69;52639.59;5002049;28;20088;-71
2023/06/20 07:53:56;;;;;;;18.17;9.98;;;;;;;-144.47;94.07;52621.72;5000694;28;20065;-71
2023/06/20 07:56:22;;;;;;;20.13;10.40;;;;;;;-144.47;94.45;52599.88;4989835;28;20053;-72
2023/06/20 07:58:47;;;;;;;15.50;11.68;;;;;;;-144.47;95.13;52649.53;5003274;28;20033;-73
2023/06/20 08:01:13;;;;;;;22.25;11.38;;;;;;;-144.47;97.06;52639.59;5003153;28;20510;-74
2023/06/20 08:03:39;;;;;;;16.98;9.73;;;;;;;-144.47;98.12;52609.81;5011402;28;20030;-77
2023/06/20 08:06:04;;;;;;;13.05;8.77;;;;;;;-144.47;100.00;52633.66;5019609;28;20606;-74
2023/06/20 08:08:30;;;;;;;12.50;7.68;;;;;;;-144.47;100.00;52627.69;5014482;28;20030;-72
2023/06/20 08:10:56;;;;;;;11.80;7.95;;;;;;;-144.47;100.00;52637.63;4986233;28;20028;-70
2023/06/20 08:13:21;;;;;;;14.18;8.68;;;;;;;-144.47;100.00;52629.69;5000116;28;20026;-71
2023/06/20 08:15:47;;;;;;;13.52;9.63;;;;;;;-144.47;100.00;52633.66;5001927;28;20510;-71
2023/06/20 08:18:12;;;;;;;13.23;8.20;;;;;;;-144.47;100.00;52637.63;5002330;28;20345;-73
2023/06/20 08:20:37;;;;;;;13.48;7.85;;;;;;;-144.47;100.00;52639.59;5002429;28;20132;-73
2023/06/20 08:23:03;;;;;;;16.65;8.75;;;;;;;-144.47;100.00;52645.56;5000773;28;20756;-76
2023/06/20 08:25:28;;;;;;;22.02;9.70;;;;;;;-144.47;100.00;52615.78;5000931;28;20472;-71
2023/06/20 08:27:53;;;;;;;13.65;6.68;;;;;;;-144.47;100.00;52641.59;5002551;28;20109;-71
2023/06/20 08:30:19;;;;;;;11.25;6.35;;;;;;;-144.47;100.00;52659.47;5000263;28;20216;-72
2023/06/20 08:32:45;;;;;;;14.23;5.20;;;;;;;-144.47;100.00;52615.78;5001390;28;20037;-73
2023/06/20 08:35:10;;;;;;;10.10;5.55;;;;;;;-144.47;100.00;52617.75;5004469;28;20029;-71
2023/06/20 08:37:37;;;;;;;10.60;6.03;;;;;;;-144.47;100.00;52597.91;5002436;28;20113;-72
2023/06/20 08:40:08;;;;;;;9.60;5.57;;;;;;;-144.47;100.00;52655.50;5001496;28;20036;-72
2023/06/20 08:42:34;;;;;;;15.50;7.18;;;;;;;-144.47;100.00;52621.72;5001742;28;20044;-71
2023/06/20 08:44:59;;;;;;;12.98;6.90;;;;;;;-144.47;100.00;52629.69;5001481;28;20026;-73
2023/06/20 08:47:25;;;;;;;12.15;6.57;;;;;;;-144.47;100.00;52613.78;4999914;28;20033;-69
2023/06/20 08:49:50;;;;;;;12.93;6.70;;;;;;;-144.47;100.00;52621.72;5000867;28;20464;-72
2023/06/20 08:52:22;;;;;;;10.48;6.97;;;;;;;-144.47;100.00;52665.44;5002682;28;20026;-72
2023/06/20 08:54:48;;;;;;;10.10;7.35;;;;;;;-144.47;100.00;52639.59;4984600;28;20026;-72
2023/06/20 08:57:14;;;;;;;11.13;7.63;;;;;;;-144.47;100.00;52635.63;5000653;28;20053;-74
2023/06/20 08:59:39;;;;;;;11.43;7.32;;;;;;;-144.47;100.00;52645.56;5001481;28;20034;-74
2023/06/20 09:02:07;;;;;;;12.63;7.78;;;;;;;-144.47;100.00;52665.44;4984288;28;21070;-69
2023/06/20 09:04:33;;;;;;;10.75;7.53;;;;;;;-144.47;100.00;52633.66;5001911;28;20033;-71
2023/06/20 09:06:59;;;;;;;17.20;8.30;;;;;;;-144.47;100.00;52667.41;5001663;28;20060;-73
2023/06/20 09:09:25;;;;;;;16.50;8.52;;;;;;;-144.47;100.00;52637.63;5000664;28;20026;-71
2023/06/20 09:11:58;;;;;;;13.25;8.55;;;;;;;-144.47;100.00;52663.44;5000722;28;20449;-75
2023/06/20 09:14:29;;;;;;;16.35;8.27;;;;;;;-144.47;98.94;52657.47;5000914;28;20078;-71
2023/06/20 09:16:55;;;;;;;13.27;8.48;;;;;;;-144.47;100.00;52653.50;5000682;28;20030;-70
2023/06/20 09:19:23;;;;;;;14.00;8.63;;;;;;;-144.47;99.11;52621.72;5000427;28;20216;-72
2023/06/20 09:21:49;;;;;;;19.05;9.73;;;;;;;-144.47;96.88;52631.66;4999625;28;20022;-74
2023/06/20 09:24:21;;;;;;;12.85;9.63;;;;;;;-144.47;96.60;52655.50;5001534;28;20026;-76
2023/06/20 09:26:47;;;;;;;15.15;10.85;;;;;;;-144.47;96.83;52651.53;5001544;28;20104;-75
2023/06/20 09:29:15;;;;;;;14.65;10.32;;;;;;;-144.47;94.88;52663.44;5003293;28;20280;-72
2023/06/20 09:31:48;;;;;;;13.68;10.18;;;;;;;-144.47;94.56;52651.53;5005770;28;20048;-73
2023/06/20 09:34:15;;;;;;;16.58;10.48;;;;;;;-144.47;94.19;52645.56;5002900;28;20018;-71
2023/06/20 09:36:41;;;;;;;15.20;9.57;;;;;;;-144.47;95.38;52629.69;5005905;28;20421;-74
2023/06/20 09:39:12;;;;;;;18.60;10.48;;;;;;;-144.47;93.31;52639.59;5004776;28;20407;-71
2023/06/20 09:41:45;;;;;;;14.70;9.88;;;;;;;-144.47;92.07;52639.59;5003501;28;20091;-73
2023/06/20 09:44:12;;;;;;;13.38;9.20;;;;;;;-144.47;91.67;52665.44;5002884;28;20030;-73
2023/06/20 09:46:37;;;;;;;15.73;10.38;;;;;;;-144.47;89.42;52653.50;5004675;28;20037;-72
2023/06/20 09:49:04;;;;;;;14.70;9.85;;;;;;;-144.47;91.12;52679.31;5004114;28;20179;-69
2023/06/20 09:51:32;;;;;;;20.98;10.30;;;;;;;-144.47;91.32;52687.28;5003677;28;20116;-72
2023/06/20 09:54:05;;;;;;;14.20;10.25;;;;;;;-144.47;91.02;52667.41;4994170;28;20179;-72
2023/06/20 09:56:44;;;;;;;14.75;10.35;;;;;;;-144.47;88.73;52657.47;4996491;28;20045;-72
2023/06/20 09:59:11;;;;;;;14.68;9.90;;;;;;;-144.47;90.35;52611.81;5004989;28;20033;-70
2023/06/20 10:01:38;;;;;;;15.23;9.93;;;;;;;-144.47;88.19;52689.25;4987022;28;20025;-70
2023/06/20 10:04:05;;;;;;;15.43;9.95;;;;;;;-144.47;85.19;52653.50;5001405;28;20029;-72
2023/06/20 10:06:30;;;;;;;12.80;9.43;;;;;;;-144.47;84.09;52683.31;5004381;28;20033;-73
2023/06/20 10:08:57;;;;;;;16.02;9.57;;;;;;;-144.47;85.43;52695.22;5003388;28;20044;-70
2023/06/20 10:11:23;;;;;;;14.55;10.02;;;;;;;-144.47;83.71;52681.31;5003920;28;20101;-73
2023/06/20 10:13:50;;;;;;;19.33;9.38;;;;;;;-144.47;81.73;52675.34;5003547;28;20030;-75
2023/06/20 10:16:15;;;;;;;15.80;11.55;;;;;;;-144.47;84.02;52695.22;5005216;28;20025;-75
2023/06/20 10:18:41;;;;;;;16.00;9.95;;;;;;;-144.47;83.32;52689.25;5003990;28;20360;-74
2023/06/20 10:21:11;;;;;;;14.13;10.43;;;;;;;-144.47;79.26;52677.34;4994820;28;20061;-69
2023/06/20 10:23:38;;;;;;;13.85;9.88;;;;;;;-144.47;78.99;52675.34;4987279;28;20451;-71
2023/06/20 10:26:07;;;;;;;12.85;8.80;;;;;;;-144.47;79.02;52679.31;5003590;28;20391;-69
2023/06/20 10:28:33;;;;;;;12.57;7.43;;;;;;;-144.47;77.64;52685.28;5003438;28;20041;-72
2023/06/20 10:31:02;;;;;;;13.63;9.48;;;;;;;-144.47;78.22;52697.19;5005005;28;20026;-72
2023/06/20 10:33:37;;;;;;;14.18;9.88;;;;;;;-144.47;78.06;52705.16;5000843;28;20757;-71
2023/06/20 10:36:09;;;;;;;14.88;8.23;;;;;;;-144.47;77.37;52689.25;5004619;28;20645;-73
2023/06/20 10:38:57;;;;;;;17.08;10.10;;;;;;;-144.47;77.47;52711.09;4999559;28;20424;-72
2023/06/20 10:41:27;;;;;;;18.23;9.75;;;;;;;-144.47;78.18;52689.25;4995977;28;20508;-68
2023/06/20 10:44:00;;;;;;;12.00;9.07;;;;;;;-144.47;77.65;52713.09;5004741;28;20308;-70
2023/06/20 10:46:28;;;;;;;15.05;10.02;;;;;;;-144.47;75.58;52713.09;5002231;28;20057;-72
2023/06/20 10:48:54;;;;;;;14.38;9.52;;;;;;;-144.47;75.74;52665.44;5005607;28;20197;-72
2023/06/20 10:51:19;;;;;;;12.65;8.90;;;;;;;-144.47;75.44;52703.16;5009417;28;20150;-72
2023/06/20 10:53:45;;;;;;;20.52;9.70;;;;;;;-144.47;74.95;52683.31;5010730;28;20096;-71
2023/06/20 10:56:27;;;;;;;14.77;9.00;;;;;;;-144.47;72.48;52727.00;5009840;28;20068;-70
2023/06/20 10:58:53;;;;;;;12.70;7.70;;;;;;;-144.47;70.59;52719.06;5010073;28;20030;-69
2023/06/20 11:01:19;;;;;;;13.50;8.68;;;;;;;-144.47;70.19;52705.16;5010162;28;20356;-72
2023/06/20 11:03:45;;;;;;;12.65;7.63;;;;;;;-144.47;69.64;52703.16;5009631;28;20057;-72
2023/06/20 11:06:17;;;;;;;16.63;8.43;;;;;;;-144.47;67.82;52699.19;5010938;28;20041;-72
2023/06/20 11:08:47;;;;;;;10.40;7.45;;;;;;;-144.47;68.10;52715.06;5011398;28;20030;-71
2023/06/20 11:11:12;;;;;;;15.23;8.02;;;;;;;-144.47;67.14;52697.19;4993663;28;20060;-74
2023/06/20 11:13:43;;;;;;;15.05;7.97;;;;;;;-144.47;66.48;52754.81;5010478;28;20053;-73
2023/06/20 11:16:19;;;;;;;10.50;5.75;;;;;;;-144.47;64.70;52748.84;5009613;28;20076;-73
2023/06/20 11:18:45;;;;;;;12.30;7.45;;;;;;;-144.47;65.34;52728.97;5008511;28;20034;-72
2023/06/20 11:21:10;;;;;;;10.30;6.88;;;;;;;-144.47;64.42;52754.81;5009010;28;20089;-74
2023/06/20 11:23:36;;;;;;;13.13;5.88;;;;;;;-144.47;62.93;52754.81;4989112;28;20053;-72
2023/06/20 11:26:02;;;;;;;7.70;4.88;;;;;;;-144.47;60.17;52762.75;5010537;28;20026;-73
2023/06/20 11:28:28;;;;;;;9.25;6.07;;;;;;;-144.47;61.66;52742.88;5008934;28;20036;-72
2023/06/20 11:30:53;;;;;;;16.00;7.10;;;;;;;-144.47;63.36;52752.81;5010250;28;20042;-73
2023/06/20 11:33:19;;;;;;;8.43;5.93;;;;;;;-144.47;62.63;52758.78;5010734;28;20030;-73
2023/06/20 11:35:44;;;;;;;10.95;6.88;;;;;;;-144.47;64.83;52752.81;5009086;28;20093;-72
2023/06/20 11:38:11;;;;;;;10.55;6.43;;;;;;;-144.47;64.22;52764.72;5011302;28;20110;-72
2023/06/20 11:40:38;;;;;;;11.13;6.85;;;;;;;-144.47;62.04;52784.59;5010291;28;20028;-71
2023/06/20 11:43:04;;;;;;;9.63;6.50;;;;;;;-144.47;61.11;52796.50;5010547;28;20084;-73
2023/06/20 11:45:29;;;;;;;8.95;5.20;;;;;;;-144.47;58.00;52780.63;5009403;28;20266;-72
2023/06/20 11:48:12;;;;;;;10.27;5.40;;;;;;;-144.47;58.20;52794.53;5002658;28;20459;-73
2023/06/20 11:50:41;;;;;;;8.68;5.18;;;;;;;-144.47;58.54;52774.66;4989197;28;20029;-69
2023/06/20 11:53:18;;;;;;;9.68;5.47;;;;;;;-144.47;58.21;52796.50;4991069;28;20030;-71
2023/06/20 11:55:48;;;;;;;11.18;5.63;;;;;;;-144.47;57.59;52778.63;5009755;28;20026;-71
2023/06/20 11:58:14;;;;;;;8.90;5.70;;;;;;;-144.47;56.47;52788.56;5008843;28;20368;-72